createdAt,value
2023-03-26T00:00:05.910Z,2.83
2023-03-26T00:02:34.108Z,3.00
2023-03-26T00:05:05.997Z,2.60
2023-03-26T00:07:34.146Z,2.60
2023-03-26T00:10:03.750Z,2.65
2023-03-26T00:12:31.862Z,3.20
2023-03-26T00:14:59.908Z,2.97
2023-03-26T00:17:29.168Z,2.47
2023-03-26T00:19:57.329Z,2.27
2023-03-26T00:22:25.628Z,2.75
2023-03-26T00:24:53.695Z,2.72
2023-03-26T00:27:23.047Z,3.22
2023-03-26T00:29:51.050Z,3.08
2023-03-26T00:32:19.088Z,2.70
2023-03-26T00:34:47.435Z,2.85
2023-03-26T00:37:15.860Z,3.00
2023-03-26T00:39:49.205Z,2.90
2023-03-26T00:42:17.378Z,3.92
2023-03-26T00:44:46.765Z,4.22
2023-03-26T00:47:15.082Z,4.30
2023-03-26T00:49:46.923Z,4.28
2023-03-26T00:52:14.993Z,3.60
2023-03-26T00:54:43.428Z,4.80
2023-03-26T00:57:16.373Z,4.18
2023-03-26T00:59:53.484Z,4.97
2023-03-26T01:02:21.687Z,4.47
2023-03-26T01:04:57.400Z,3.92
2023-03-26T01:07:29.112Z,5.03
2023-03-26T01:10:01.205Z,3.17
2023-03-26T01:12:33.044Z,4.45
2023-03-26T01:15:04.637Z,3.45
2023-03-26T01:17:34.371Z,5.00
2023-03-26T01:20:13.292Z,3.75
2023-03-26T01:22:45.785Z,3.30
2023-03-26T01:25:15.288Z,3.30
2023-03-26T01:27:48.111Z,3.78
2023-03-26T01:30:25.433Z,4.10
2023-03-26T01:33:02.502Z,4.18
2023-03-26T01:35:47.000Z,3.55
2023-03-26T01:38:29.200Z,2.58
2023-03-26T01:41:05.797Z,2.88
2023-03-26T01:43:40.797Z,4.00
2023-03-26T01:46:12.641Z,3.72
2023-03-26T01:48:43.337Z,3.70
2023-03-26T01:51:13.204Z,3.42
2023-03-26T01:53:45.175Z,2.80
2023-03-26T01:56:20.604Z,4.53
2023-03-26T01:59:02.991Z,3.17
2023-03-26T02:01:37.588Z,3.13
2023-03-26T02:04:14.196Z,3.85
2023-03-26T02:06:47.427Z,3.78
2023-03-26T02:09:22.459Z,3.72
2023-03-26T02:11:52.703Z,3.00
2023-03-26T02:16:51.553Z,3.42
2023-03-26T02:19:22.063Z,3.15
2023-03-26T02:21:51.603Z,3.50
2023-03-26T02:24:20.588Z,3.03
2023-03-26T02:26:50.091Z,3.33
2023-03-26T02:29:20.643Z,2.70
2023-03-26T02:31:49.685Z,2.80
2023-03-26T02:34:17.904Z,2.75
2023-03-26T02:36:46.026Z,2.58
2023-03-26T02:39:14.441Z,2.20
2023-03-26T02:41:42.713Z,2.83
2023-03-26T02:44:10.782Z,2.47
2023-03-26T02:46:40.280Z,3.13
2023-03-26T02:49:08.673Z,2.78
2023-03-26T02:51:37.642Z,3.28
2023-03-26T02:54:07.223Z,2.00
2023-03-26T02:56:35.779Z,2.50
2023-03-26T02:59:03.914Z,2.58
2023-03-26T03:01:35.035Z,3.00
2023-03-26T03:04:05.291Z,4.68
2023-03-26T03:06:33.313Z,2.92
2023-03-26T03:09:02.815Z,4.13
2023-03-26T03:11:30.872Z,3.67
2023-03-26T03:13:58.899Z,3.67
2023-03-26T03:16:27.228Z,4.15
2023-03-26T03:18:57.897Z,4.40
2023-03-26T03:21:29.184Z,4.47
2023-03-26T03:24:00.162Z,4.55
2023-03-26T03:26:29.960Z,5.15
2023-03-26T03:29:00.502Z,6.28
2023-03-26T03:31:28.625Z,5.75
2023-03-26T03:33:57.225Z,4.85
2023-03-26T03:36:27.817Z,5.68
2023-03-26T03:39:02.389Z,5.43
2023-03-26T03:41:30.820Z,5.28
2023-03-26T03:43:59.937Z,5.10
2023-03-26T03:46:28.125Z,4.57
2023-03-26T03:48:56.597Z,5.15
2023-03-26T03:51:25.980Z,4.32
2023-03-26T03:53:55.977Z,4.28
2023-03-26T03:56:26.237Z,4.55
2023-03-26T03:58:54.292Z,4.28
2023-03-26T04:01:23.633Z,4.28
2023-03-26T04:03:54.138Z,3.80
2023-03-26T04:06:22.196Z,3.83
2023-03-26T04:08:50.203Z,4.00
2023-03-26T04:11:18.351Z,4.13
2023-03-26T04:13:47.731Z,4.53
2023-03-26T04:16:17.579Z,4.00
2023-03-26T04:18:47.163Z,3.67
2023-03-26T04:21:16.016Z,4.00
2023-03-26T04:23:47.529Z,3.35
2023-03-26T04:26:20.154Z,3.75
2023-03-26T04:28:54.952Z,3.40
2023-03-26T04:31:29.270Z,2.33
2023-03-26T04:34:01.650Z,3.20
2023-03-26T04:36:32.263Z,3.67
2023-03-26T04:39:04.981Z,3.35
2023-03-26T04:41:33.357Z,3.47
2023-03-26T04:44:05.633Z,2.85
2023-03-26T04:46:35.125Z,3.40
2023-03-26T04:49:04.420Z,3.88
2023-03-26T04:51:39.575Z,3.70
2023-03-26T04:54:08.478Z,3.63
2023-03-26T04:56:46.693Z,3.45
2023-03-26T04:59:27.371Z,3.13
2023-03-26T05:01:55.421Z,3.22
2023-03-26T05:04:23.546Z,3.60
2023-03-26T05:06:52.089Z,3.17
2023-03-26T05:09:20.793Z,4.00
2023-03-26T05:11:53.109Z,4.25
2023-03-26T05:14:22.507Z,3.08
2023-03-26T05:16:53.372Z,4.57
2023-03-26T05:19:21.458Z,2.92
2023-03-26T05:21:49.671Z,4.07
2023-03-26T05:24:19.732Z,5.15
2023-03-26T05:26:47.770Z,3.95
2023-03-26T05:29:18.382Z,3.60
2023-03-26T05:31:49.132Z,3.40
2023-03-26T05:34:17.410Z,4.32
2023-03-26T05:36:45.540Z,3.13
2023-03-26T05:39:14.293Z,2.88
2023-03-26T05:41:46.921Z,4.40
2023-03-26T05:44:14.898Z,4.25
2023-03-26T05:46:42.888Z,3.67
2023-03-26T05:49:12.290Z,3.60
2023-03-26T05:51:40.534Z,3.00
2023-03-26T05:54:08.589Z,3.00
2023-03-26T05:56:39.566Z,3.72
2023-03-26T05:59:08.069Z,2.70
2023-03-26T06:01:36.445Z,3.83
2023-03-26T06:04:06.943Z,3.60
2023-03-26T06:06:36.562Z,2.78
2023-03-26T06:09:05.184Z,3.70
2023-03-26T06:11:33.269Z,4.10
2023-03-26T06:14:01.578Z,4.72
2023-03-26T06:16:29.628Z,4.80
2023-03-26T06:18:58.454Z,5.35
2023-03-26T06:21:26.980Z,4.53
2023-03-26T06:23:59.608Z,3.65
2023-03-26T06:38:47.709Z,4.40
2023-03-26T07:48:33.216Z,2.85
2023-03-26T09:47:16.561Z,2.17
2023-03-26T09:50:07.151Z,2.42
2023-03-26T09:52:57.272Z,2.90
2023-03-26T09:56:05.171Z,2.75
